sensor_id;sensor_type;location;lat;lon;timestamp;pressure;altitude;pressure_sealevel;temperature;humidity
72428;BME280;60419;48.880;18.036;2023-05-23T00:02:33;98795.97;;;15.92;72.69
72428;BME280;60419;48.880;18.036;2023-05-23T00:05:18;98791.34;;;15.80;73.24
72428;BME280;60419;48.880;18.036;2023-05-23T00:08:04;98787.59;;;15.85;72.43
72428;BME280;60419;48.880;18.036;2023-05-23T00:10:50;98794.59;;;15.86;72.25
72428;BME280;60419;48.880;18.036;2023-05-23T00:13:35;98790.94;;;15.94;72.09
72428;BME280;60419;48.880;18.036;2023-05-23T00:16:21;98795.59;;;16.22;70.68
72428;BME280;60419;48.880;18.036;2023-05-23T00:19:07;98789.03;;;15.95;71.13
72428;BME280;60419;48.880;18.036;2023-05-23T00:21:52;98796.81;;;16.24;70.15
72428;BME280;60419;48.880;18.036;2023-05-23T00:24:40;98791.59;;;16.03;70.46
72428;BME280;60419;48.880;18.036;2023-05-23T00:27:26;98787.38;;;16.06;70.36
72428;BME280;60419;48.880;18.036;2023-05-23T00:30:11;98780.19;;;15.86;70.97
72428;BME280;60419;48.880;18.036;2023-05-23T00:32:57;98780.06;;;15.54;73.81
72428;BME280;60419;48.880;18.036;2023-05-23T00:35:43;98780.63;;;15.47;73.12
72428;BME280;60419;48.880;18.036;2023-05-23T00:38:28;98784.00;;;15.69;72.51
72428;BME280;60419;48.880;18.036;2023-05-23T00:41:14;98793.50;;;15.75;72.50
72428;BME280;60419;48.880;18.036;2023-05-23T00:44:00;98786.06;;;16.00;72.18
72428;BME280;60419;48.880;18.036;2023-05-23T00:46:50;98784.16;;;15.76;72.06
72428;BME280;60419;48.880;18.036;2023-05-23T00:49:36;98787.22;;;15.87;71.89
72428;BME280;60419;48.880;18.036;2023-05-23T00:52:21;98786.19;;;15.91;71.15
72428;BME280;60419;48.880;18.036;2023-05-23T00:55:07;98791.28;;;15.52;72.28
72428;BME280;60419;48.880;18.036;2023-05-23T00:57:53;98794.44;;;15.79;70.82
72428;BME280;60419;48.880;18.036;2023-05-23T01:00:42;98784.00;;;15.69;71.75
72428;BME280;60419;48.880;18.036;2023-05-23T01:03:29;98791.63;;;15.51;72.29
72428;BME280;60419;48.880;18.036;2023-05-23T01:06:14;98749.31;;;15.53;71.52
72428;BME280;60419;48.880;18.036;2023-05-23T01:09:00;98768.75;;;15.80;71.06
72428;BME280;60419;48.880;18.036;2023-05-23T01:15:11;98779.53;;;15.76;71.59
72428;BME280;60419;48.880;18.036;2023-05-23T01:18:10;98782.41;;;15.15;73.92
72428;BME280;60419;48.880;18.036;2023-05-23T01:21:11;98791.00;;;15.05;73.69
72428;BME280;60419;48.880;18.036;2023-05-23T01:27:18;98778.19;;;15.17;73.67
72428;BME280;60419;48.880;18.036;2023-05-23T01:30:08;98781.94;;;15.01;74.95
72428;BME280;60419;48.880;18.036;2023-05-23T01:32:55;98789.38;;;15.40;73.86
72428;BME280;60419;48.880;18.036;2023-05-23T01:35:41;98776.31;;;15.58;72.22
72428;BME280;60419;48.880;18.036;2023-05-23T01:38:27;98775.16;;;15.59;71.85
72428;BME280;60419;48.880;18.036;2023-05-23T01:41:13;98770.56;;;15.35;72.54
72428;BME280;60419;48.880;18.036;2023-05-23T01:43:59;98765.00;;;15.32;72.37
72428;BME280;60419;48.880;18.036;2023-05-23T01:46:45;98778.19;;;15.30;71.56
72428;BME280;60419;48.880;18.036;2023-05-23T01:49:32;98774.28;;;14.90;72.47
72428;BME280;60419;48.880;18.036;2023-05-23T01:52:19;98780.50;;;14.91;73.32
72428;BME280;60419;48.880;18.036;2023-05-23T01:55:06;98779.22;;;15.01;73.19
72428;BME280;60419;48.880;18.036;2023-05-23T01:57:56;98754.41;;;15.02;72.57
72428;BME280;60419;48.880;18.036;2023-05-23T02:00:42;98777.97;;;15.23;71.92
72428;BME280;60419;48.880;18.036;2023-05-23T02:03:28;98773.09;;;15.16;72.38
72428;BME280;60419;48.880;18.036;2023-05-23T02:06:13;98766.22;;;15.06;73.04
72428;BME280;60419;48.880;18.036;2023-05-23T02:08:59;98756.28;;;15.26;71.74
72428;BME280;60419;48.880;18.036;2023-05-23T02:11:44;98777.41;;;15.17;72.17
72428;BME280;60419;48.880;18.036;2023-05-23T02:14:29;98780.91;;;15.30;72.17
72428;BME280;60419;48.880;18.036;2023-05-23T02:17:15;98755.56;;;14.77;72.00
72428;BME280;60419;48.880;18.036;2023-05-23T02:20:00;98785.56;;;14.22;75.99
72428;BME280;60419;48.880;18.036;2023-05-23T02:22:46;98778.47;;;14.30;76.24
72428;BME280;60419;48.880;18.036;2023-05-23T02:25:31;98784.94;;;14.38;75.76
72428;BME280;60419;48.880;18.036;2023-05-23T02:28:17;98777.22;;;14.27;75.26
72428;BME280;60419;48.880;18.036;2023-05-23T02:31:02;98774.28;;;14.32;76.10
72428;BME280;60419;48.880;18.036;2023-05-23T02:33:47;98772.19;;;14.63;74.59
72428;BME280;60419;48.880;18.036;2023-05-23T02:36:33;98771.47;;;14.53;74.37
72428;BME280;60419;48.880;18.036;2023-05-23T02:39:18;98777.00;;;14.32;75.33
72428;BME280;60419;48.880;18.036;2023-05-23T02:42:04;98771.66;;;13.57;77.61
72428;BME280;60419;48.880;18.036;2023-05-23T02:44:49;98778.28;;;12.88;81.08
72428;BME280;60419;48.880;18.036;2023-05-23T02:47:34;98773.53;;;13.36;79.69
72428;BME280;60419;48.880;18.036;2023-05-23T02:50:20;98769.44;;;13.72;77.89
72428;BME280;60419;48.880;18.036;2023-05-23T02:53:05;98769.81;;;13.40;78.94
72428;BME280;60419;48.880;18.036;2023-05-23T02:55:51;98764.56;;;14.31;75.60
72428;BME280;60419;48.880;18.036;2023-05-23T02:58:36;98776.53;;;12.92;81.12
72428;BME280;60419;48.880;18.036;2023-05-23T03:01:21;98763.75;;;12.93;81.16
72428;BME280;60419;48.880;18.036;2023-05-23T03:04:07;98767.75;;;13.16;80.80
72428;BME280;60419;48.880;18.036;2023-05-23T03:06:52;98761.41;;;12.83;82.33
72428;BME280;60419;48.880;18.036;2023-05-23T03:09:43;98763.66;;;12.81;82.13
72428;BME280;60419;48.880;18.036;2023-05-23T03:12:29;98763.97;;;12.49;83.11
72428;BME280;60419;48.880;18.036;2023-05-23T03:15:14;98759.56;;;12.19;84.98
72428;BME280;60419;48.880;18.036;2023-05-23T03:17:59;98750.66;;;12.65;82.83
72428;BME280;60419;48.880;18.036;2023-05-23T03:20:45;98748.91;;;12.61;83.14
72428;BME280;60419;48.880;18.036;2023-05-23T03:23:30;98746.31;;;12.26;83.89
72428;BME280;60419;48.880;18.036;2023-05-23T03:26:16;98750.38;;;12.58;83.52
72428;BME280;60419;48.880;18.036;2023-05-23T03:29:01;98745.88;;;13.42;79.54
72428;BME280;60419;48.880;18.036;2023-05-23T03:31:46;98734.06;;;13.68;77.88
72428;BME280;60419;48.880;18.036;2023-05-23T03:34:33;98733.16;;;14.22;75.81
72428;BME280;60419;48.880;18.036;2023-05-23T03:37:20;98728.69;;;14.38;74.53
72428;BME280;60419;48.880;18.036;2023-05-23T03:40:06;98743.81;;;14.27;75.34
72428;BME280;60419;48.880;18.036;2023-05-23T03:43:05;98709.22;;;14.36;74.01
72428;BME280;60419;48.880;18.036;2023-05-23T03:45:51;98741.06;;;14.72;73.26
72428;BME280;60419;48.880;18.036;2023-05-23T03:48:36;98735.38;;;14.65;73.75
72428;BME280;60419;48.880;18.036;2023-05-23T03:51:22;98731.97;;;13.98;75.26
72428;BME280;60419;48.880;18.036;2023-05-23T03:54:08;98730.94;;;15.91;86.58
72428;BME280;60419;48.880;18.036;2023-05-23T03:56:53;98734.66;;;16.93;79.15
72428;BME280;60419;48.880;18.036;2023-05-23T03:59:40;98718.00;;;17.53;74.20
72428;BME280;60419;48.880;18.036;2023-05-23T04:02:25;98736.84;;;18.43;70.28
72428;BME280;60419;48.880;18.036;2023-05-23T04:05:13;98737.44;;;19.63;65.95
72428;BME280;60419;48.880;18.036;2023-05-23T04:07:59;98739.63;;;17.62;60.84
72428;BME280;60419;48.880;18.036;2023-05-23T04:10:45;98737.06;;;16.79;63.14
72428;BME280;60419;48.880;18.036;2023-05-23T04:13:30;98738.00;;;16.08;65.53
72428;BME280;60419;48.880;18.036;2023-05-23T04:16:16;98736.84;;;15.12;68.43
72428;BME280;60419;48.880;18.036;2023-05-23T04:19:01;98739.03;;;15.75;67.15
72428;BME280;60419;48.880;18.036;2023-05-23T04:21:48;98739.38;;;16.01;66.42
72428;BME280;60419;48.880;18.036;2023-05-23T04:24:33;98741.03;;;15.22;68.78
72428;BME280;60419;48.880;18.036;2023-05-23T04:27:19;98734.00;;;15.89;67.58
72428;BME280;60419;48.880;18.036;2023-05-23T04:30:07;98734.00;;;15.61;68.72
72428;BME280;60419;48.880;18.036;2023-05-23T04:32:53;98736.09;;;15.68;68.47
72428;BME280;60419;48.880;18.036;2023-05-23T04:35:42;98728.16;;;15.34;69.34
72428;BME280;60419;48.880;18.036;2023-05-23T04:38:27;98721.13;;;14.93;70.96
72428;BME280;60419;48.880;18.036;2023-05-23T04:41:13;98724.31;;;15.35;70.35
72428;BME280;60419;48.880;18.036;2023-05-23T04:44:00;98716.41;;;15.87;69.14
72428;BME280;60419;48.880;18.036;2023-05-23T04:46:45;98722.94;;;15.98;68.85
72428;BME280;60419;48.880;18.036;2023-05-23T04:49:31;98718.34;;;15.86;68.50
72428;BME280;60419;48.880;18.036;2023-05-23T04:52:18;98715.91;;;15.69;69.44
72428;BME280;60419;48.880;18.036;2023-05-23T04:55:04;98718.38;;;16.02;68.33
72428;BME280;60419;48.880;18.036;2023-05-23T04:57:50;98707.13;;;15.19;69.74
72428;BME280;60419;48.880;18.036;2023-05-23T05:00:36;98711.16;;;15.37;69.89
72428;BME280;60419;48.880;18.036;2023-05-23T05:03:21;98707.63;;;15.37;69.53
72428;BME280;60419;48.880;18.036;2023-05-23T05:06:09;98705.84;;;15.29;69.74
72428;BME280;60419;48.880;18.036;2023-05-23T05:08:54;98702.09;;;15.33;69.57
72428;BME280;60419;48.880;18.036;2023-05-23T05:11:40;98707.28;;;15.79;68.08
72428;BME280;60419;48.880;18.036;2023-05-23T05:14:25;98686.41;;;16.15;66.24
72428;BME280;60419;48.880;18.036;2023-05-23T05:17:11;98690.25;;;15.98;66.66
72428;BME280;60419;48.880;18.036;2023-05-23T05:19:57;98692.16;;;15.25;69.88
72428;BME280;60419;48.880;18.036;2023-05-23T05:22:42;98692.19;;;14.02;74.23
72428;BME280;60419;48.880;18.036;2023-05-23T05:25:27;98696.03;;;14.14;74.31
72428;BME280;60419;48.880;18.036;2023-05-23T05:28:16;98695.81;;;15.17;71.76
72428;BME280;60419;48.880;18.036;2023-05-23T05:31:01;98503.66;;;13.91;70.30
72428;BME280;60419;48.880;18.036;2023-05-23T05:33:49;98701.75;;;14.33;74.15
72428;BME280;60419;48.880;18.036;2023-05-23T05:36:34;98699.13;;;14.12;74.81
72428;BME280;60419;48.880;18.036;2023-05-23T05:39:22;98673.84;;;14.12;74.73
72428;BME280;60419;48.880;18.036;2023-05-23T05:42:08;98686.75;;;14.02;75.87
72428;BME280;60419;48.880;18.036;2023-05-23T05:44:54;98690.53;;;14.84;72.85
72428;BME280;60419;48.880;18.036;2023-05-23T05:47:39;98685.09;;;14.84;71.97
72428;BME280;60419;48.880;18.036;2023-05-23T05:50:24;98687.91;;;14.63;72.66
72428;BME280;60419;48.880;18.036;2023-05-23T05:53:10;98684.25;;;15.48;70.24
72428;BME280;60419;48.880;18.036;2023-05-23T05:55:56;98686.69;;;15.25;69.54
72428;BME280;60419;48.880;18.036;2023-05-23T05:58:42;98690.00;;;15.18;69.92
72428;BME280;60419;48.880;18.036;2023-05-23T06:01:27;98688.84;;;14.54;72.78
72428;BME280;60419;48.880;18.036;2023-05-23T06:04:13;98690.72;;;15.03;70.75
72428;BME280;60419;48.880;18.036;2023-05-23T06:06:58;98685.00;;;15.61;69.93
72428;BME280;60419;48.880;18.036;2023-05-23T06:09:44;98693.78;;;16.46;67.72
72428;BME280;60419;48.880;18.036;2023-05-23T06:12:29;98696.94;;;16.80;65.34
72428;BME280;60419;48.880;18.036;2023-05-23T06:15:15;98692.22;;;15.97;68.23
72428;BME280;60419;48.880;18.036;2023-05-23T06:18:00;98682.34;;;16.40;66.77
72428;BME280;60419;48.880;18.036;2023-05-23T06:20:45;98687.47;;;16.26;67.42
72428;BME280;60419;48.880;18.036;2023-05-23T06:23:31;98686.84;;;16.33;67.38
72428;BME280;60419;48.880;18.036;2023-05-23T06:26:16;98679.22;;;16.89;65.52
72428;BME280;60419;48.880;18.036;2023-05-23T06:29:02;98687.09;;;17.30;63.99
72428;BME280;60419;48.880;18.036;2023-05-23T06:31:47;98683.84;;;17.63;62.86
72428;BME280;60419;48.880;18.036;2023-05-23T06:34:33;98680.91;;;17.91;62.23
72428;BME280;60419;48.880;18.036;2023-05-23T06:37:18;98686.06;;;16.48;66.73
72428;BME280;60419;48.880;18.036;2023-05-23T06:40:04;98687.97;;;16.63;66.06
72428;BME280;60419;48.880;18.036;2023-05-23T06:42:49;98681.25;;;16.92;66.01
72428;BME280;60419;48.880;18.036;2023-05-23T06:45:35;98682.59;;;16.83;66.03
72428;BME280;60419;48.880;18.036;2023-05-23T06:48:22;98680.47;;;17.50;64.01
72428;BME280;60419;48.880;18.036;2023-05-23T06:51:07;98669.97;;;17.91;62.54
72428;BME280;60419;48.880;18.036;2023-05-23T06:53:53;98672.88;;;18.71;60.76
72428;BME280;60419;48.880;18.036;2023-05-23T06:56:40;98659.63;;;17.81;61.73
72428;BME280;60419;48.880;18.036;2023-05-23T06:59:26;98669.56;;;17.50;63.75
72428;BME280;60419;48.880;18.036;2023-05-23T07:02:11;98667.84;;;18.27;61.12
72428;BME280;60419;48.880;18.036;2023-05-23T07:04:56;98671.34;;;18.51;60.49
72428;BME280;60419;48.880;18.036;2023-05-23T07:07:42;98665.97;;;18.08;60.63
72428;BME280;60419;48.880;18.036;2023-05-23T07:10:28;98658.88;;;18.76;59.53
72428;BME280;60419;48.880;18.036;2023-05-23T07:13:13;98659.63;;;19.03;58.24
72428;BME280;60419;48.880;18.036;2023-05-23T07:15:58;98654.09;;;19.64;56.57
72428;BME280;60419;48.880;18.036;2023-05-23T07:18:44;98653.09;;;19.49;57.76
72428;BME280;60419;48.880;18.036;2023-05-23T07:21:29;98651.69;;;18.95;58.70
72428;BME280;60419;48.880;18.036;2023-05-23T07:24:15;98643.03;;;19.57;57.30
72428;BME280;60419;48.880;18.036;2023-05-23T07:27:01;98641.97;;;18.71;59.27
72428;BME280;60419;48.880;18.036;2023-05-23T07:29:46;98629.06;;;19.31;57.64
72428;BME280;60419;48.880;18.036;2023-05-23T07:32:32;98633.81;;;20.13;56.62
72428;BME280;60419;48.880;18.036;2023-05-23T07:35:17;98633.19;;;20.34;55.82
72428;BME280;60419;48.880;18.036;2023-05-23T07:38:08;98631.91;;;20.72;54.79
72428;BME280;60419;48.880;18.036;2023-05-23T07:40:53;98639.22;;;21.23;53.31
72428;BME280;60419;48.880;18.036;2023-05-23T07:43:39;98624.97;;;20.37;55.97
72428;BME280;60419;48.880;18.036;2023-05-23T07:46:24;98634.03;;;19.93;57.79
72428;BME280;60419;48.880;18.036;2023-05-23T07:49:10;98629.59;;;20.78;56.02
72428;BME280;60419;48.880;18.036;2023-05-23T07:51:55;98627.44;;;21.19;55.13
72428;BME280;60419;48.880;18.036;2023-05-23T07:54:40;98617.41;;;21.95;53.25
72428;BME280;60419;48.880;18.036;2023-05-23T07:57:26;98624.47;;;20.25;56.92
72428;BME280;60419;48.880;18.036;2023-05-23T08:00:12;98618.28;;;20.94;56.62
72428;BME280;60419;48.880;18.036;2023-05-23T08:02:58;98619.75;;;21.93;53.67
72428;BME280;60419;48.880;18.036;2023-05-23T08:05:44;98613.47;;;22.50;53.15
72428;BME280;60419;48.880;18.036;2023-05-23T08:08:29;98616.97;;;22.83;52.02
72428;BME280;60419;48.880;18.036;2023-05-23T08:11:15;98612.25;;;22.79;51.46
72428;BME280;60419;48.880;18.036;2023-05-23T08:14:00;98614.78;;;23.40;49.75
72428;BME280;60419;48.880;18.036;2023-05-23T08:16:45;98610.38;;;24.09;49.41
72428;BME280;60419;48.880;18.036;2023-05-23T08:19:31;98604.34;;;23.73;51.19
72428;BME280;60419;48.880;18.036;2023-05-23T08:22:16;98606.41;;;23.58;49.53
72428;BME280;60419;48.880;18.036;2023-05-23T08:25:02;98606.59;;;23.19;50.12
72428;BME280;60419;48.880;18.036;2023-05-23T08:27:48;98604.00;;;22.79;50.53
72428;BME280;60419;48.880;18.036;2023-05-23T08:30:33;98609.00;;;23.17;50.08
72428;BME280;60419;48.880;18.036;2023-05-23T08:33:18;98601.97;;;23.75;49.81
72428;BME280;60419;48.880;18.036;2023-05-23T08:36:04;98597.75;;;24.12;49.49
72428;BME280;60419;48.880;18.036;2023-05-23T08:38:50;98591.28;;;24.33;47.68
72428;BME280;60419;48.880;18.036;2023-05-23T08:41:36;98595.28;;;24.66;46.56
72428;BME280;60419;48.880;18.036;2023-05-23T08:44:21;98590.00;;;24.45;46.65
72428;BME280;60419;48.880;18.036;2023-05-23T08:47:07;98580.66;;;24.31;47.81
72428;BME280;60419;48.880;18.036;2023-05-23T08:49:54;98599.31;;;24.96;47.23
72428;BME280;60419;48.880;18.036;2023-05-23T08:52:47;98591.72;;;24.28;48.16
72428;BME280;60419;48.880;18.036;2023-05-23T08:55:36;98570.19;;;22.61;52.79
72428;BME280;60419;48.880;18.036;2023-05-23T08:58:22;98594.53;;;22.91;54.29
72428;BME280;60419;48.880;18.036;2023-05-23T09:01:09;98590.59;;;22.92;52.27
72428;BME280;60419;48.880;18.036;2023-05-23T09:03:55;98594.06;;;23.07;51.85
72428;BME280;60419;48.880;18.036;2023-05-23T09:06:44;98587.41;;;23.75;50.79
72428;BME280;60419;48.880;18.036;2023-05-23T09:09:29;98589.47;;;24.16;52.67
72428;BME280;60419;48.880;18.036;2023-05-23T09:12:15;98586.47;;;23.92;50.68
72428;BME280;60419;48.880;18.036;2023-05-23T09:15:00;98585.34;;;23.86;49.96
72428;BME280;60419;48.880;18.036;2023-05-23T09:17:47;98586.75;;;24.05;50.25
72428;BME280;60419;48.880;18.036;2023-05-23T09:20:32;98583.53;;;24.59;50.20
72428;BME280;60419;48.880;18.036;2023-05-23T09:23:18;98570.91;;;24.20;50.58
72428;BME280;60419;48.880;18.036;2023-05-23T09:26:06;98578.81;;;24.93;50.69
72428;BME280;60419;48.880;18.036;2023-05-23T09:28:56;98577.31;;;24.89;49.61
72428;BME280;60419;48.880;18.036;2023-05-23T09:31:41;98575.81;;;25.15;48.40
72428;BME280;60419;48.880;18.036;2023-05-23T09:34:28;98584.00;;;25.49;48.02
72428;BME280;60419;48.880;18.036;2023-05-23T09:37:15;98580.16;;;26.21;46.66
72428;BME280;60419;48.880;18.036;2023-05-23T09:40:07;98580.03;;;26.28;47.27
72428;BME280;60419;48.880;18.036;2023-05-23T09:43:01;98577.25;;;26.52;46.83
72428;BME280;60419;48.880;18.036;2023-05-23T09:45:47;98574.44;;;26.32;47.67
72428;BME280;60419;48.880;18.036;2023-05-23T09:48:32;98571.63;;;25.30;50.20
72428;BME280;60419;48.880;18.036;2023-05-23T09:51:19;98574.72;;;25.90;47.59
72428;BME280;60419;48.880;18.036;2023-05-23T09:54:05;98566.41;;;26.14;47.67
72428;BME280;60419;48.880;18.036;2023-05-23T09:56:52;98569.44;;;25.18;48.67
72428;BME280;60419;48.880;18.036;2023-05-23T09:59:41;98568.81;;;24.35;52.36
72428;BME280;60419;48.880;18.036;2023-05-23T10:05:46;98557.59;;;24.83;50.20
72428;BME280;60419;48.880;18.036;2023-05-23T10:09:01;98549.16;;;24.25;52.21
72428;BME280;60419;48.880;18.036;2023-05-23T10:14:54;98551.34;;;24.00;52.84
72428;BME280;60419;48.880;18.036;2023-05-23T10:20:42;98556.47;;;23.49;53.77
72428;BME280;60419;48.880;18.036;2023-05-23T10:23:32;98548.56;;;24.03;52.73
72428;BME280;60419;48.880;18.036;2023-05-23T10:26:18;98553.69;;;24.81;51.14
72428;BME280;60419;48.880;18.036;2023-05-23T10:29:05;98526.91;;;24.02;51.89
72428;BME280;60419;48.880;18.036;2023-05-23T10:31:51;98540.50;;;23.78;50.88
72428;BME280;60419;48.880;18.036;2023-05-23T10:37:44;98549.41;;;24.00;51.88
72428;BME280;60419;48.880;18.036;2023-05-23T10:41:05;98538.19;;;24.18;50.76
72428;BME280;60419;48.880;18.036;2023-05-23T10:47:00;98528.41;;;24.10;51.53
72428;BME280;60419;48.880;18.036;2023-05-23T10:49:51;98527.84;;;23.84;51.82
72428;BME280;60419;48.880;18.036;2023-05-23T10:52:38;98528.22;;;23.90;51.05
72428;BME280;60419;48.880;18.036;2023-05-23T10:55:31;98526.22;;;23.91;51.09
72428;BME280;60419;48.880;18.036;2023-05-23T10:58:18;98526.88;;;24.05;50.37
72428;BME280;60419;48.880;18.036;2023-05-23T11:01:07;98524.72;;;24.27;50.40
72428;BME280;60419;48.880;18.036;2023-05-23T11:03:53;98522.50;;;24.84;48.05
72428;BME280;60419;48.880;18.036;2023-05-23T11:06:41;98509.53;;;25.38;47.03
72428;BME280;60419;48.880;18.036;2023-05-23T11:09:28;98504.66;;;25.97;46.84
72428;BME280;60419;48.880;18.036;2023-05-23T11:12:13;98499.00;;;26.27;47.48
72428;BME280;60419;48.880;18.036;2023-05-23T11:14:59;98481.41;;;26.38;45.02
72428;BME280;60419;48.880;18.036;2023-05-23T11:17:56;98486.50;;;26.59;43.36
72428;BME280;60419;48.880;18.036;2023-05-23T11:20:43;98479.75;;;25.97;44.68
72428;BME280;60419;48.880;18.036;2023-05-23T11:23:40;98456.63;;;26.31;43.87
72428;BME280;60419;48.880;18.036;2023-05-23T11:26:30;98482.03;;;26.02;45.04
72428;BME280;60419;48.880;18.036;2023-05-23T11:29:16;98464.16;;;26.30;42.59
72428;BME280;60419;48.880;18.036;2023-05-23T11:32:09;98459.41;;;26.07;40.83
72428;BME280;60419;48.880;18.036;2023-05-23T11:35:06;98439.81;;;25.51;43.43
72428;BME280;60419;48.880;18.036;2023-05-23T11:37:52;98446.56;;;25.97;42.53
72428;BME280;60419;48.880;18.036;2023-05-23T11:40:42;98437.88;;;25.95;42.94
72428;BME280;60419;48.880;18.036;2023-05-23T11:43:28;98423.66;;;26.36;39.47
72428;BME280;60419;48.880;18.036;2023-05-23T11:46:13;98410.19;;;26.38;40.01
72428;BME280;60419;48.880;18.036;2023-05-23T11:48:58;98407.78;;;26.40;38.86
72428;BME280;60419;48.880;18.036;2023-05-23T11:51:44;98401.03;;;26.41;38.51
72428;BME280;60419;48.880;18.036;2023-05-23T11:54:30;98363.38;;;26.80;36.25
72428;BME280;60419;48.880;18.036;2023-05-23T11:57:15;98385.63;;;26.40;39.83
72428;BME280;60419;48.880;18.036;2023-05-23T12:00:00;98383.69;;;26.37;38.32
72428;BME280;60419;48.880;18.036;2023-05-23T12:02:48;98387.66;;;26.56;37.97
72428;BME280;60419;48.880;18.036;2023-05-23T12:05:33;98386.91;;;26.72;37.98
72428;BME280;60419;48.880;18.036;2023-05-23T12:08:18;98388.72;;;26.79;38.57
72428;BME280;60419;48.880;18.036;2023-05-23T12:11:04;98388.59;;;26.49;39.01
72428;BME280;60419;48.880;18.036;2023-05-23T12:13:51;98392.00;;;26.37;38.71
72428;BME280;60419;48.880;18.036;2023-05-23T12:16:37;98378.84;;;26.61;37.81
72428;BME280;60419;48.880;18.036;2023-05-23T12:19:22;98383.75;;;26.14;38.67
72428;BME280;60419;48.880;18.036;2023-05-23T12:22:07;98382.72;;;26.27;40.53
72428;BME280;60419;48.880;18.036;2023-05-23T12:24:54;98375.22;;;26.64;39.68
72428;BME280;60419;48.880;18.036;2023-05-23T12:27:42;98355.88;;;26.44;39.69
72428;BME280;60419;48.880;18.036;2023-05-23T12:30:28;98371.72;;;26.04;37.57
72428;BME280;60419;48.880;18.036;2023-05-23T12:33:13;98372.53;;;26.24;39.23
72428;BME280;60419;48.880;18.036;2023-05-23T12:35:59;98374.75;;;25.46;40.40
72428;BME280;60419;48.880;18.036;2023-05-23T12:38:44;98371.44;;;25.98;40.35
72428;BME280;60419;48.880;18.036;2023-05-23T12:41:31;98368.00;;;25.47;41.24
72428;BME280;60419;48.880;18.036;2023-05-23T12:44:17;98372.28;;;25.28;42.94
72428;BME280;60419;48.880;18.036;2023-05-23T12:47:02;98370.69;;;25.74;42.22
72428;BME280;60419;48.880;18.036;2023-05-23T12:49:48;98371.22;;;26.09;42.72
72428;BME280;60419;48.880;18.036;2023-05-23T12:52:34;98376.50;;;25.80;44.00
72428;BME280;60419;48.880;18.036;2023-05-23T12:55:20;98377.47;;;26.33;43.43
72428;BME280;60419;48.880;18.036;2023-05-23T12:58:06;98388.69;;;26.99;42.48
72428;BME280;60419;48.880;18.036;2023-05-23T13:00:51;98389.69;;;26.36;41.83
72428;BME280;60419;48.880;18.036;2023-05-23T13:03:37;98390.13;;;25.71;44.58
72428;BME280;60419;48.880;18.036;2023-05-23T13:06:22;98390.44;;;26.16;43.92
72428;BME280;60419;48.880;18.036;2023-05-23T13:09:08;98393.75;;;26.67;43.06
72428;BME280;60419;48.880;18.036;2023-05-23T13:11:53;98384.31;;;26.45;43.95
72428;BME280;60419;48.880;18.036;2023-05-23T13:14:40;98388.28;;;27.00;42.42
72428;BME280;60419;48.880;18.036;2023-05-23T13:17:25;98388.78;;;27.11;42.28
72428;BME280;60419;48.880;18.036;2023-05-23T13:20:11;98392.25;;;26.99;42.05
72428;BME280;60419;48.880;18.036;2023-05-23T13:22:58;98401.41;;;25.80;43.62
72428;BME280;60419;48.880;18.036;2023-05-23T13:25:44;98409.28;;;25.34;44.72
72428;BME280;60419;48.880;18.036;2023-05-23T13:28:30;98409.28;;;25.81;44.27
72428;BME280;60419;48.880;18.036;2023-05-23T13:31:15;98399.63;;;25.46;44.44
72428;BME280;60419;48.880;18.036;2023-05-23T13:34:01;98391.81;;;25.41;44.81
72428;BME280;60419;48.880;18.036;2023-05-23T13:36:46;98391.50;;;23.51;46.99
72428;BME280;60419;48.880;18.036;2023-05-23T13:39:31;98387.38;;;22.58;49.34
72428;BME280;60419;48.880;18.036;2023-05-23T13:42:17;98414.78;;;21.78;51.53
72428;BME280;60419;48.880;18.036;2023-05-23T13:45:03;98411.63;;;21.86;51.64
72428;BME280;60419;48.880;18.036;2023-05-23T13:47:49;98421.09;;;21.49;52.90
72428;BME280;60419;48.880;18.036;2023-05-23T13:50:34;98419.13;;;21.61;52.69
72428;BME280;60419;48.880;18.036;2023-05-23T13:53:20;98415.59;;;21.49;57.86
72428;BME280;60419;48.880;18.036;2023-05-23T13:56:05;98416.91;;;20.29;58.54
72428;BME280;60419;48.880;18.036;2023-05-23T13:58:51;98417.22;;;20.16;60.99
72428;BME280;60419;48.880;18.036;2023-05-23T14:01:36;98434.66;;;20.60;61.83
72428;BME280;60419;48.880;18.036;2023-05-23T14:04:22;98449.50;;;20.41;63.99
72428;BME280;60419;48.880;18.036;2023-05-23T14:07:07;98472.78;;;20.06;64.74
72428;BME280;60419;48.880;18.036;2023-05-23T14:09:53;98497.97;;;19.26;71.33
72428;BME280;60419;48.880;18.036;2023-05-23T14:12:38;98496.69;;;19.17;73.15
72428;BME280;60419;48.880;18.036;2023-05-23T14:15:25;98491.75;;;18.58;75.11
72428;BME280;60419;48.880;18.036;2023-05-23T14:18:11;98497.34;;;19.44;71.63
72428;BME280;60419;48.880;18.036;2023-05-23T14:20:56;98503.81;;;19.66;69.52
72428;BME280;60419;48.880;18.036;2023-05-23T14:23:42;98507.94;;;19.49;69.82
72428;BME280;60419;48.880;18.036;2023-05-23T14:26:27;98506.00;;;19.08;69.85
72428;BME280;60419;48.880;18.036;2023-05-23T14:29:13;98501.53;;;18.93;69.60
72428;BME280;60419;48.880;18.036;2023-05-23T14:31:58;98496.78;;;18.56;71.30
72428;BME280;60419;48.880;18.036;2023-05-23T14:34:44;98494.59;;;18.39;72.62
72428;BME280;60419;48.880;18.036;2023-05-23T14:37:30;98500.53;;;18.44;72.39
72428;BME280;60419;48.880;18.036;2023-05-23T14:40:15;98494.88;;;18.60;71.10
72428;BME280;60419;48.880;18.036;2023-05-23T14:43:00;98509.91;;;18.43;72.59
72428;BME280;60419;48.880;18.036;2023-05-23T14:45:46;98520.75;;;18.10;72.70
72428;BME280;60419;48.880;18.036;2023-05-23T14:48:31;98531.38;;;18.15;72.53
72428;BME280;60419;48.880;18.036;2023-05-23T14:51:17;98536.16;;;16.87;75.27
72428;BME280;60419;48.880;18.036;2023-05-23T14:54:02;98552.84;;;17.44;75.66